createdAt,value
2022-11-17T00:05:16.006Z,10.62
2022-11-17T00:15:21.034Z,10.57
2022-11-17T00:25:24.836Z,10.62
2022-11-17T00:35:29.807Z,10.59
2022-11-17T00:45:33.537Z,10.54
2022-11-17T00:55:38.535Z,10.58
2022-11-17T01:05:42.619Z,10.48
2022-11-17T01:15:47.557Z,10.45
2022-11-17T01:25:51.196Z,10.42
2022-11-17T01:35:56.667Z,10.53
2022-11-17T01:46:00.827Z,10.40
2022-11-17T01:56:11.403Z,10.51
2022-11-17T02:06:20.873Z,10.50
2022-11-17T02:16:25.841Z,10.64
2022-11-17T02:26:59.262Z,10.59
2022-11-17T02:37:11.743Z,10.44
2022-11-17T02:47:20.740Z,10.41
2022-11-17T02:57:34.359Z,10.48
2022-11-17T03:07:57.955Z,10.43
2022-11-17T03:18:12.690Z,10.42
2022-11-17T03:28:18.829Z,10.38
2022-11-17T03:38:27.720Z,10.43
2022-11-17T03:48:37.883Z,10.39
2022-11-17T03:58:53.093Z,10.41
2022-11-17T04:08:56.775Z,10.52
2022-11-17T04:19:01.681Z,10.50
2022-11-17T04:29:05.849Z,10.59
2022-11-17T04:39:11.673Z,10.69
2022-11-17T04:49:17.309Z,10.72
2022-11-17T04:59:22.677Z,10.81
2022-11-17T05:09:26.370Z,10.60
2022-11-17T05:19:33.760Z,10.54
2022-11-17T05:29:37.388Z,10.53
2022-11-17T05:39:42.458Z,10.57
2022-11-17T05:49:46.190Z,10.57
2022-11-17T05:59:55.969Z,10.45
2022-11-17T06:09:59.644Z,10.42
2022-11-17T06:20:08.586Z,10.57
2022-11-17T06:30:12.935Z,10.41
2022-11-17T06:40:18.362Z,10.39
2022-11-17T06:50:22.081Z,10.50
2022-11-17T07:00:27.552Z,10.51
2022-11-17T07:10:32.436Z,10.63
2022-11-17T07:20:37.491Z,10.65
2022-11-17T07:30:41.192Z,10.73
2022-11-17T07:40:46.328Z,10.93
2022-11-17T07:50:50.150Z,10.89
2022-11-17T08:00:55.206Z,11.28
2022-11-17T08:11:03.736Z,11.99
2022-11-17T08:21:11.018Z,12.15
2022-11-17T08:31:14.886Z,12.18
2022-11-17T08:41:21.655Z,11.86
2022-11-17T08:51:27.111Z,12.04
2022-11-17T09:01:32.284Z,12.46
2022-11-17T09:11:36.167Z,13.04
2022-11-17T09:21:41.248Z,13.30
2022-11-17T09:31:45.055Z,13.20
2022-11-17T09:41:52.640Z,13.19
2022-11-17T09:52:01.863Z,13.24
2022-11-17T10:02:11.565Z,13.63
2022-11-17T10:12:19.596Z,13.69
2022-11-17T10:22:35.773Z,14.19
2022-11-17T10:32:49.905Z,14.11
2022-11-17T10:43:23.720Z,14.20
2022-11-17T10:53:32.969Z,14.16
2022-11-17T11:03:38.479Z,14.52
2022-11-17T11:13:48.406Z,15.08
2022-11-17T11:24:05.293Z,14.99
2022-11-17T11:34:28.318Z,14.22
2022-11-17T11:44:55.508Z,13.76
2022-11-17T11:55:03.063Z,13.41
2022-11-17T12:05:20.121Z,14.01
2022-11-17T12:15:38.687Z,13.81
2022-11-17T12:25:53.574Z,14.36
2022-11-17T12:36:31.559Z,14.76
2022-11-17T12:46:37.595Z,14.68
2022-11-17T12:56:56.795Z,14.70
2022-11-17T13:07:05.334Z,14.97
2022-11-17T13:17:13.294Z,14.75
2022-11-17T13:27:25.501Z,14.45
2022-11-17T13:37:31.566Z,14.07
2022-11-17T13:47:48.406Z,13.74
2022-11-17T13:57:57.961Z,13.40
2022-11-17T14:08:22.578Z,13.28
2022-11-17T14:18:31.674Z,13.08
2022-11-17T14:28:37.112Z,13.03
2022-11-17T14:38:40.917Z,12.94
2022-11-17T14:48:46.115Z,12.65
2022-11-17T14:58:54.716Z,12.72
2022-11-17T15:09:02.505Z,12.40
2022-11-17T15:19:06.763Z,12.34
2022-11-17T15:29:16.151Z,12.20
2022-11-17T15:39:20.780Z,11.60
2022-11-17T15:49:25.856Z,11.75
2022-11-17T15:59:29.758Z,11.62
2022-11-17T16:09:35.373Z,11.59
2022-11-17T16:19:39.066Z,11.43
2022-11-17T16:29:44.157Z,11.40
2022-11-17T16:39:47.807Z,11.24
2022-11-17T16:49:55.222Z,11.03
2022-11-17T16:59:59.077Z,10.90
2022-11-17T17:10:05.470Z,10.78
2022-11-17T17:20:11.151Z,10.73
2022-11-17T17:30:18.243Z,10.90
2022-11-17T17:40:21.997Z,10.88
2022-11-17T17:50:27.041Z,10.62
2022-11-17T18:00:30.765Z,10.38
2022-11-17T18:10:37.271Z,10.25
2022-11-17T18:20:41.154Z,10.08
2022-11-17T18:30:46.211Z,10.18
2022-11-17T18:40:49.945Z,10.23
2022-11-17T18:51:18.086Z,10.02
2022-11-17T19:01:21.497Z,9.90
2022-11-17T19:11:27.419Z,9.79
2022-11-17T19:21:33.611Z,9.70
2022-11-17T19:31:39.338Z,9.56
2022-11-17T19:41:43.583Z,9.52
2022-11-17T19:51:48.768Z,9.49
2022-11-17T20:01:53.002Z,9.36
2022-11-17T20:11:58.505Z,9.15
2022-11-17T20:22:02.199Z,9.11
2022-11-17T20:32:07.394Z,8.59
2022-11-17T20:42:13.213Z,8.48
2022-11-17T20:52:18.239Z,8.39
2022-11-17T21:02:22.033Z,8.42
2022-11-17T21:12:27.182Z,8.36
2022-11-17T21:22:31.085Z,8.60
2022-11-17T21:32:36.225Z,8.74
2022-11-17T21:42:40.007Z,8.82
2022-11-17T21:52:44.953Z,8.90
2022-11-17T22:02:48.746Z,8.82
2022-11-17T22:12:53.901Z,8.75
2022-11-17T22:22:57.753Z,8.84
2022-11-17T22:33:02.753Z,8.96
2022-11-17T22:43:11.752Z,9.16
2022-11-17T22:53:19.590Z,9.35
2022-11-17T23:03:24.217Z,9.44
2022-11-17T23:13:29.770Z,9.44
2022-11-17T23:23:34.369Z,9.50
2022-11-17T23:33:42.541Z,9.33
2022-11-17T23:43:46.592Z,9.44
2022-11-17T23:53:51.769Z,9.43
